createdAt,value
2019-04-25T00:00:13.853Z,6.45
2019-04-25T00:01:24.644Z,5.95
2019-04-25T00:02:27.936Z,6.28
2019-04-25T00:03:40.822Z,6.70
2019-04-25T00:04:43.742Z,6.15
2019-04-25T00:05:45.843Z,6.45
2019-04-25T00:06:47.257Z,6.10
2019-04-25T00:07:48.668Z,6.25
2019-04-25T00:08:51.569Z,6.75
2019-04-25T00:09:54.477Z,7.27
2019-04-25T00:10:55.944Z,6.87
2019-04-25T00:11:59.619Z,6.20
2019-04-25T00:13:01.664Z,6.65
2019-04-25T00:14:04.312Z,6.72
2019-04-25T00:15:06.423Z,6.92
2019-04-25T00:16:08.029Z,6.40
2019-04-25T00:17:09.638Z,6.92
2019-04-25T00:18:11.970Z,6.92
2019-04-25T00:19:13.977Z,6.83
2019-04-25T00:20:16.051Z,7.27
2019-04-25T00:21:34.485Z,7.05
2019-04-25T00:22:42.557Z,6.67
2019-04-25T00:23:47.104Z,7.00
2019-04-25T00:25:15.266Z,7.03
2019-04-25T00:26:16.821Z,6.90
2019-04-25T00:27:18.329Z,7.22
2019-04-25T00:28:21.573Z,7.17
2019-04-25T00:29:23.156Z,7.05
2019-04-25T00:30:26.348Z,6.70
2019-04-25T00:31:27.831Z,6.50
2019-04-25T00:32:31.596Z,7.17
2019-04-25T00:33:33.118Z,7.58
2019-04-25T00:34:34.519Z,6.60
2019-04-25T00:35:36.032Z,7.35
2019-04-25T00:36:39.054Z,6.85
2019-04-25T00:37:43.055Z,7.08
2019-04-25T00:38:46.439Z,6.83
2019-04-25T00:39:47.296Z,6.72
2019-04-25T00:40:48.796Z,7.22
2019-04-25T00:41:50.249Z,6.73
2019-04-25T00:42:53.460Z,6.93
2019-04-25T00:43:54.916Z,6.40
2019-04-25T00:44:56.304Z,6.33
2019-04-25T00:45:57.700Z,7.17
2019-04-25T00:46:59.096Z,6.55
2019-04-25T00:48:00.483Z,7.22
2019-04-25T00:49:02.543Z,6.72
2019-04-25T00:50:04.569Z,6.90
2019-04-25T00:51:05.979Z,7.22
2019-04-25T00:52:07.383Z,7.08
2019-04-25T00:53:08.752Z,7.10
2019-04-25T00:54:11.795Z,7.10
2019-04-25T00:55:25.865Z,7.03
2019-04-25T00:56:16.966Z,6.92
2019-04-25T00:57:18.451Z,7.67
2019-04-25T00:58:21.748Z,7.03
2019-04-25T00:59:32.055Z,7.20
2019-04-25T01:00:36.621Z,6.60
2019-04-25T01:01:44.220Z,6.80
2019-04-25T01:02:48.062Z,6.83
2019-04-25T01:03:49.950Z,6.92
2019-04-25T01:04:52.097Z,7.17
2019-04-25T01:05:54.649Z,7.17
2019-04-25T01:06:56.143Z,6.50
2019-04-25T01:07:57.650Z,7.05
2019-04-25T01:08:59.248Z,7.37
2019-04-25T01:10:02.469Z,7.45
2019-04-25T01:11:04.129Z,7.37
2019-04-25T01:12:05.804Z,7.83
2019-04-25T01:13:07.685Z,6.83
2019-04-25T01:14:09.081Z,6.87
2019-04-25T01:15:11.873Z,6.90
2019-04-25T01:16:13.354Z,6.97
2019-04-25T01:17:15.748Z,7.12
2019-04-25T01:18:17.127Z,7.10
2019-04-25T01:19:18.737Z,6.97
2019-04-25T01:20:20.108Z,7.83
2019-04-25T01:21:21.604Z,7.03
2019-04-25T01:22:23.255Z,6.80
2019-04-25T01:23:24.665Z,6.62
2019-04-25T01:24:26.290Z,7.10
2019-04-25T01:25:38.547Z,6.90
2019-04-25T01:26:33.866Z,6.72
2019-04-25T01:27:35.303Z,6.35
2019-04-25T01:28:36.778Z,7.20
2019-04-25T01:29:38.175Z,6.92
2019-04-25T01:30:39.651Z,6.90
2019-04-25T01:31:41.036Z,6.33
2019-04-25T01:32:44.655Z,7.12
2019-04-25T01:33:46.687Z,6.72
2019-04-25T01:34:50.875Z,6.97
2019-04-25T01:35:55.776Z,6.60
2019-04-25T01:36:59.112Z,6.87
2019-04-25T01:38:20.610Z,6.55
2019-04-25T01:39:26.687Z,7.00
2019-04-25T01:40:33.408Z,7.00
2019-04-25T01:41:37.703Z,6.97
2019-04-25T01:42:43.991Z,6.75
2019-04-25T01:43:48.495Z,7.10
2019-04-25T01:44:51.666Z,6.15
2019-04-25T01:45:54.967Z,6.78
2019-04-25T01:46:58.154Z,6.58
2019-04-25T01:47:59.927Z,6.75
2019-04-25T01:49:01.324Z,6.60
2019-04-25T01:50:06.716Z,6.95
2019-04-25T01:51:08.303Z,7.03
2019-04-25T01:52:09.690Z,6.42
2019-04-25T01:53:11.167Z,6.15
2019-04-25T01:54:14.112Z,6.65
2019-04-25T01:55:15.550Z,6.85
2019-04-25T01:56:17.255Z,6.53
2019-04-25T01:57:19.770Z,7.33
2019-04-25T01:58:21.295Z,6.62
2019-04-25T01:59:23.750Z,6.42
2019-04-25T02:00:39.403Z,6.70
2019-04-25T02:01:40.913Z,6.70
2019-04-25T02:02:43.503Z,6.35
2019-04-25T02:03:45.088Z,7.08
2019-04-25T02:04:46.489Z,7.00
2019-04-25T02:05:48.160Z,6.80
2019-04-25T02:06:49.558Z,6.92
2019-04-25T02:07:51.542Z,7.05
2019-04-25T02:08:54.940Z,6.90
2019-04-25T02:09:57.323Z,6.65
2019-04-25T02:11:18.956Z,7.12
2019-04-25T02:12:25.213Z,6.92
2019-04-25T02:13:26.774Z,7.30
2019-04-25T02:14:28.154Z,7.03
2019-04-25T02:15:33.324Z,6.78
2019-04-25T02:16:35.436Z,7.22
2019-04-25T02:17:36.841Z,6.78
2019-04-25T02:18:38.458Z,7.08
2019-04-25T02:19:40.938Z,6.87
2019-04-25T02:20:43.675Z,7.70
2019-04-25T02:21:45.220Z,7.47
2019-04-25T02:22:46.608Z,6.78
2019-04-25T02:23:48.027Z,7.03
2019-04-25T02:24:49.403Z,7.00
2019-04-25T02:26:04.475Z,7.33
2019-04-25T02:26:55.259Z,6.85
2019-04-25T02:28:00.268Z,6.67
2019-04-25T02:29:00.953Z,7.00
2019-04-25T02:30:06.768Z,6.80
2019-04-25T02:31:08.854Z,7.30
2019-04-25T02:32:10.507Z,7.05
2019-04-25T02:33:14.010Z,7.10
2019-04-25T02:34:18.047Z,7.30
2019-04-25T02:35:18.565Z,6.60
2019-04-25T02:36:20.069Z,7.15
2019-04-25T02:37:21.452Z,7.30
2019-04-25T02:38:24.296Z,7.03
2019-04-25T02:39:27.686Z,7.05
2019-04-25T02:40:29.165Z,7.35
2019-04-25T02:41:30.667Z,6.87
2019-04-25T02:42:34.243Z,6.62
2019-04-25T02:43:35.449Z,6.72
2019-04-25T02:44:39.866Z,6.62
2019-04-25T02:45:45.758Z,6.40
2019-04-25T02:46:51.610Z,7.20
2019-04-25T02:48:14.115Z,7.70
2019-04-25T02:49:38.764Z,7.45
2019-04-25T02:50:48.690Z,7.30
2019-04-25T02:51:56.274Z,6.80
2019-04-25T02:52:59.948Z,6.67
2019-04-25T02:54:02.714Z,7.05
2019-04-25T02:55:10.529Z,6.62
2019-04-25T02:56:29.419Z,6.67
2019-04-25T02:57:11.876Z,6.85
2019-04-25T02:58:14.152Z,7.17
2019-04-25T02:59:15.669Z,7.20
2019-04-25T03:00:25.005Z,6.53
2019-04-25T03:01:26.490Z,6.85
2019-04-25T03:02:28.166Z,7.40
2019-04-25T03:03:29.556Z,6.87
2019-04-25T03:04:30.991Z,6.67
2019-04-25T03:05:35.125Z,6.80
2019-04-25T03:06:35.860Z,7.55
2019-04-25T03:07:37.339Z,7.12
2019-04-25T03:08:38.720Z,6.30
2019-04-25T03:09:40.131Z,7.05
2019-04-25T03:10:41.537Z,6.67
2019-04-25T03:11:45.226Z,6.90
2019-04-25T03:12:46.415Z,7.03
2019-04-25T03:13:48.069Z,6.80
2019-04-25T03:14:49.442Z,6.62
2019-04-25T03:15:52.682Z,7.33
2019-04-25T03:16:54.535Z,7.40
2019-04-25T03:17:56.142Z,7.37
2019-04-25T03:19:13.992Z,7.40
2019-04-25T03:20:24.452Z,7.42
2019-04-25T03:21:30.696Z,7.17
2019-04-25T03:22:34.515Z,8.10
2019-04-25T03:23:35.990Z,7.00
2019-04-25T03:24:37.388Z,7.50
2019-04-25T03:25:39.060Z,7.47
2019-04-25T03:26:40.766Z,7.17
2019-04-25T03:27:43.989Z,7.22
2019-04-25T03:28:46.552Z,6.53
2019-04-25T03:29:47.959Z,7.60
2019-04-25T03:30:49.477Z,7.70
2019-04-25T03:31:50.898Z,7.28
2019-04-25T03:32:52.411Z,7.45
2019-04-25T03:33:55.823Z,7.03
2019-04-25T03:34:58.204Z,6.30
2019-04-25T03:35:59.576Z,7.58
2019-04-25T03:37:01.788Z,7.55
2019-04-25T03:38:04.545Z,6.87
2019-04-25T03:39:06.741Z,7.37
2019-04-25T03:40:08.172Z,7.30
2019-04-25T03:41:09.572Z,7.08
2019-04-25T03:42:11.963Z,7.30
2019-04-25T03:43:14.962Z,7.35
2019-04-25T03:44:16.639Z,7.00
2019-04-25T03:45:19.023Z,6.70
2019-04-25T03:46:20.413Z,7.65
2019-04-25T03:47:23.446Z,8.30
2019-04-25T03:48:25.244Z,7.35
2019-04-25T03:49:26.678Z,7.22
2019-04-25T03:50:28.077Z,6.30
2019-04-25T03:51:29.451Z,7.40
2019-04-25T03:52:30.850Z,7.30
2019-04-25T03:53:33.717Z,7.47
2019-04-25T03:54:35.327Z,7.30
2019-04-25T03:55:36.711Z,7.62
2019-04-25T03:56:49.650Z,6.72
2019-04-25T03:57:41.391Z,7.33
2019-04-25T03:58:43.976Z,7.37
2019-04-25T03:59:46.487Z,7.55
2019-04-25T04:00:47.961Z,7.12
2019-04-25T04:01:49.329Z,7.22
2019-04-25T04:02:50.835Z,7.37
2019-04-25T04:03:53.698Z,7.00
2019-04-25T04:04:55.246Z,8.08
2019-04-25T04:06:05.880Z,7.30
2019-04-25T04:07:08.810Z,7.47
2019-04-25T04:08:10.308Z,7.42
2019-04-25T04:09:11.876Z,7.50
2019-04-25T04:10:15.116Z,7.65
2019-04-25T04:11:16.734Z,6.97
2019-04-25T04:12:18.148Z,7.33
2019-04-25T04:13:19.548Z,7.50
2019-04-25T04:14:21.022Z,7.62
2019-04-25T04:15:23.190Z,7.42
2019-04-25T04:16:27.796Z,7.55
2019-04-25T04:17:34.004Z,7.55
2019-04-25T04:18:44.202Z,7.67
2019-04-25T04:19:47.635Z,7.47
2019-04-25T04:21:11.118Z,7.92
2019-04-25T04:22:15.403Z,7.62
2019-04-25T04:23:23.190Z,7.40
2019-04-25T04:24:26.675Z,7.90
2019-04-25T04:25:28.355Z,7.75
2019-04-25T04:26:29.948Z,8.28
2019-04-25T04:27:31.439Z,7.95
2019-04-25T04:28:33.832Z,7.62
2019-04-25T04:29:35.222Z,7.50
2019-04-25T04:30:36.598Z,7.60
2019-04-25T04:31:38.995Z,7.97
2019-04-25T04:32:40.468Z,8.10
2019-04-25T04:33:43.113Z,7.72
2019-04-25T04:34:45.490Z,7.50
2019-04-25T04:35:48.083Z,7.45
2019-04-25T04:36:49.468Z,7.58
2019-04-25T04:37:50.918Z,7.60
2019-04-25T04:38:54.124Z,7.62
2019-04-25T04:39:55.613Z,7.85
2019-04-25T04:40:56.985Z,8.23
2019-04-25T04:41:58.385Z,7.72
2019-04-25T04:42:59.759Z,7.90
2019-04-25T04:44:01.150Z,8.05
2019-04-25T04:45:04.405Z,7.40
2019-04-25T04:46:05.790Z,7.90
2019-04-25T04:47:08.470Z,8.10
2019-04-25T04:48:11.082Z,7.83
2019-04-25T04:49:14.173Z,8.03
2019-04-25T04:50:16.592Z,8.43
2019-04-25T04:51:18.786Z,8.00
2019-04-25T04:52:20.236Z,8.43
2019-04-25T04:53:21.613Z,8.08
2019-04-25T04:54:23.178Z,8.13
2019-04-25T04:55:24.702Z,7.83
2019-04-25T04:56:26.219Z,7.85
2019-04-25T04:57:33.285Z,8.13
2019-04-25T04:58:30.942Z,7.95
2019-04-25T04:59:33.780Z,8.20
2019-04-25T05:00:35.357Z,7.50
2019-04-25T05:01:55.454Z,8.30
2019-04-25T05:02:58.758Z,8.05
2019-04-25T05:04:02.038Z,8.20
2019-04-25T05:05:23.150Z,7.67
2019-04-25T05:06:29.377Z,7.60
2019-04-25T05:07:35.467Z,7.92
2019-04-25T05:08:47.919Z,7.35
2019-04-25T05:09:49.332Z,8.00
2019-04-25T05:10:50.751Z,8.43
2019-04-25T05:11:52.153Z,8.00
2019-04-25T05:12:53.638Z,8.05
2019-04-25T05:13:55.040Z,8.45
2019-04-25T05:14:56.416Z,7.97
2019-04-25T05:15:57.997Z,8.13
2019-04-25T05:16:59.417Z,9.00
2019-04-25T05:18:00.932Z,8.48
2019-04-25T05:19:03.734Z,8.45
2019-04-25T05:20:05.843Z,8.08
2019-04-25T05:21:07.254Z,7.53
2019-04-25T05:22:08.746Z,8.30
2019-04-25T05:23:14.827Z,7.58
2019-04-25T05:24:17.321Z,8.20
2019-04-25T05:25:19.124Z,7.65
2019-04-25T05:26:21.827Z,7.72
2019-04-25T05:27:36.019Z,8.00
2019-04-25T05:28:26.532Z,8.00
2019-04-25T05:29:28.047Z,7.47
2019-04-25T05:30:31.363Z,7.50
2019-04-25T05:31:37.608Z,7.53
2019-04-25T05:32:39.028Z,8.00
2019-04-25T05:33:40.386Z,8.18
2019-04-25T05:34:41.791Z,8.73
2019-04-25T05:35:44.054Z,8.25
2019-04-25T05:36:45.672Z,8.00
2019-04-25T05:37:47.069Z,8.20
2019-04-25T05:38:48.444Z,8.03
2019-04-25T05:39:49.845Z,8.30
2019-04-25T05:40:55.634Z,8.28
2019-04-25T05:41:59.949Z,7.97
2019-04-25T05:43:03.396Z,8.60
2019-04-25T05:44:04.770Z,8.33
2019-04-25T05:45:06.359Z,10.25
2019-04-25T05:46:07.852Z,8.35
2019-04-25T05:47:09.227Z,7.42
2019-04-25T05:48:10.672Z,7.75
2019-04-25T05:49:13.737Z,7.97
2019-04-25T05:50:16.334Z,7.90
2019-04-25T05:51:17.810Z,8.13
2019-04-25T05:52:19.895Z,8.53
2019-04-25T05:53:22.417Z,9.55
2019-04-25T05:54:25.622Z,8.30
2019-04-25T05:55:27.292Z,8.30
2019-04-25T05:56:28.680Z,7.92
2019-04-25T05:57:30.073Z,8.45
2019-04-25T05:58:31.479Z,8.40
2019-04-25T05:59:33.747Z,8.30
2019-04-25T06:00:35.361Z,8.55
2019-04-25T06:01:36.738Z,7.90
2019-04-25T06:02:38.131Z,8.63
2019-04-25T06:03:39.521Z,8.63
2019-04-25T06:04:40.911Z,8.45
2019-04-25T06:05:43.431Z,9.33
2019-04-25T06:06:44.895Z,8.25
2019-04-25T06:07:46.288Z,9.13
2019-04-25T06:08:49.996Z,9.23
2019-04-25T06:09:54.456Z,8.70
2019-04-25T06:11:00.842Z,8.58
2019-04-25T06:12:23.719Z,8.50
2019-04-25T06:13:43.453Z,8.05
2019-04-25T06:14:44.933Z,8.63
2019-04-25T06:15:48.222Z,7.70
2019-04-25T06:16:51.086Z,8.43
2019-04-25T06:17:55.478Z,8.25
2019-04-25T06:19:11.861Z,8.55
2019-04-25T06:20:07.717Z,8.58
2019-04-25T06:21:11.036Z,8.43
2019-04-25T06:22:30.663Z,8.55
2019-04-25T06:23:50.616Z,8.70
2019-04-25T06:25:06.096Z,7.90
2019-04-25T06:26:19.072Z,8.63
2019-04-25T06:27:14.505Z,8.68
2019-04-25T06:28:24.830Z,8.15
2019-04-25T06:29:26.359Z,7.72
2019-04-25T06:30:29.518Z,7.80
2019-04-25T06:31:32.102Z,9.05
2019-04-25T06:32:35.500Z,8.43
2019-04-25T06:33:37.208Z,8.45
2019-04-25T06:34:38.560Z,8.53
2019-04-25T06:35:39.946Z,8.08
2019-04-25T06:36:41.337Z,8.93
2019-04-25T06:37:43.747Z,8.40
2019-04-25T06:38:45.212Z,8.50
2019-04-25T06:39:47.251Z,8.40
2019-04-25T06:40:48.633Z,8.98
2019-04-25T06:41:50.041Z,9.25
2019-04-25T06:42:53.591Z,8.55
2019-04-25T06:43:57.731Z,8.30
2019-04-25T06:45:06.948Z,10.13
2019-04-25T06:46:28.857Z,9.05
2019-04-25T06:47:34.115Z,7.95
2019-04-25T06:48:37.533Z,8.53
2019-04-25T06:49:40.840Z,8.50
2019-04-25T06:50:43.723Z,8.75
2019-04-25T06:51:49.223Z,8.73
2019-04-25T06:52:50.719Z,8.88
2019-04-25T06:53:53.475Z,8.43
2019-04-25T06:54:54.885Z,8.95
2019-04-25T06:55:57.243Z,9.10
2019-04-25T06:56:58.622Z,8.90
2019-04-25T06:58:10.241Z,9.08
2019-04-25T06:59:03.532Z,8.10
2019-04-25T07:00:09.406Z,8.70
2019-04-25T07:01:10.994Z,9.15
2019-04-25T07:02:13.882Z,8.65
2019-04-25T07:03:15.718Z,8.83
2019-04-25T07:04:17.158Z,9.13
2019-04-25T07:05:26.718Z,8.90
2019-04-25T07:06:24.738Z,8.58
2019-04-25T07:07:26.655Z,8.98
2019-04-25T07:08:29.134Z,8.50
2019-04-25T07:09:31.124Z,8.58
2019-04-25T07:10:33.913Z,8.60
2019-04-25T07:11:36.325Z,9.10
2019-04-25T07:12:37.702Z,8.98
2019-04-25T07:13:39.105Z,8.83
2019-04-25T07:14:40.476Z,9.03
2019-04-25T07:15:43.660Z,9.10
2019-04-25T07:16:45.295Z,8.88
2019-04-25T07:17:46.768Z,8.85
2019-04-25T07:18:48.165Z,8.43
2019-04-25T07:19:49.678Z,8.85
2019-04-25T07:20:51.184Z,7.97
2019-04-25T07:21:54.162Z,8.30
2019-04-25T07:22:55.611Z,8.23
2019-04-25T07:23:56.998Z,9.15
2019-04-25T07:24:58.379Z,8.15
2019-04-25T07:26:01.688Z,8.43
2019-04-25T07:27:20.850Z,8.60
2019-04-25T07:28:31.459Z,8.63
2019-04-25T07:29:35.705Z,8.83
2019-04-25T07:30:57.525Z,8.90
2019-04-25T07:32:14.378Z,9.30
2019-04-25T07:33:25.948Z,8.38
2019-04-25T07:34:30.179Z,8.68
2019-04-25T07:35:31.598Z,8.10
2019-04-25T07:36:33.421Z,9.13
2019-04-25T07:37:37.851Z,8.98
2019-04-25T07:38:39.573Z,9.00
2019-04-25T07:39:40.964Z,9.43
2019-04-25T07:40:43.355Z,9.20
2019-04-25T07:41:45.040Z,8.95
2019-04-25T07:42:46.459Z,9.28
2019-04-25T07:43:47.867Z,8.83
2019-04-25T07:44:52.804Z,9.48
2019-04-25T07:45:53.532Z,9.63
2019-04-25T07:46:55.080Z,8.68
2019-04-25T07:47:57.591Z,8.65
2019-04-25T07:48:59.120Z,9.20
2019-04-25T07:50:00.529Z,9.13
2019-04-25T07:51:03.620Z,8.60
2019-04-25T07:52:05.208Z,9.20
2019-04-25T07:53:06.616Z,8.58
2019-04-25T07:54:08.003Z,8.35
2019-04-25T07:55:09.591Z,8.90
2019-04-25T07:56:11.176Z,8.95
2019-04-25T07:57:13.561Z,8.53
2019-04-25T07:58:15.165Z,8.68
2019-04-25T07:59:17.540Z,8.95
2019-04-25T08:00:21.239Z,8.50
2019-04-25T08:01:23.594Z,8.20
2019-04-25T08:02:25.216Z,8.95
2019-04-25T08:03:26.711Z,8.25
2019-04-25T08:04:28.990Z,8.45
2019-04-25T08:05:31.239Z,9.28
2019-04-25T08:06:34.448Z,8.58
2019-04-25T08:07:37.874Z,8.23
2019-04-25T08:08:39.368Z,8.08
2019-04-25T08:09:40.740Z,8.73
2019-04-25T08:11:03.871Z,8.33
2019-04-25T08:12:05.484Z,7.58
2019-04-25T08:13:06.882Z,8.00
2019-04-25T08:14:10.179Z,8.95
2019-04-25T08:15:14.044Z,8.55
2019-04-25T08:16:20.372Z,7.70
2019-04-25T08:17:40.089Z,8.55
2019-04-25T08:19:00.036Z,8.28
2019-04-25T08:20:04.007Z,8.28
2019-04-25T08:21:05.614Z,8.13
2019-04-25T08:22:06.984Z,8.40
2019-04-25T08:23:08.487Z,8.18
2019-04-25T08:24:09.887Z,8.10
2019-04-25T08:25:11.795Z,7.62
2019-04-25T08:26:14.244Z,8.28
2019-04-25T08:27:15.817Z,8.40
2019-04-25T08:28:17.226Z,7.70
2019-04-25T08:29:18.924Z,7.85
2019-04-25T08:30:20.497Z,8.20
2019-04-25T08:31:23.390Z,8.05
2019-04-25T08:32:25.409Z,8.00
2019-04-25T08:33:26.874Z,8.55
2019-04-25T08:34:28.289Z,8.18
2019-04-25T08:35:30.047Z,8.38
2019-04-25T08:36:35.527Z,8.08
2019-04-25T08:37:35.644Z,8.33
2019-04-25T08:38:38.184Z,8.03
2019-04-25T08:39:39.867Z,8.20
2019-04-25T08:40:42.474Z,7.42
2019-04-25T08:41:45.739Z,8.30
2019-04-25T08:42:48.297Z,7.67
2019-04-25T08:43:49.689Z,7.37
2019-04-25T08:44:51.215Z,7.17
2019-04-25T08:45:54.269Z,7.55
2019-04-25T08:46:55.835Z,8.35
2019-04-25T08:47:57.324Z,7.87
2019-04-25T08:49:14.073Z,8.10
2019-04-25T08:50:28.900Z,7.40
2019-04-25T08:51:25.695Z,7.75
2019-04-25T08:52:27.276Z,8.35
2019-04-25T08:53:31.438Z,8.18
2019-04-25T08:54:40.901Z,7.85
2019-04-25T08:55:48.496Z,8.28
2019-04-25T08:56:49.965Z,7.47
2019-04-25T08:57:53.963Z,7.65
2019-04-25T08:59:05.476Z,7.95
2019-04-25T09:00:07.780Z,7.67
2019-04-25T09:01:18.715Z,7.83
2019-04-25T09:02:27.806Z,7.92
2019-04-25T09:03:40.146Z,7.83
2019-04-25T09:04:44.634Z,7.40
2019-04-25T09:05:48.018Z,7.53
2019-04-25T09:06:49.506Z,7.47
2019-04-25T09:07:50.970Z,7.92
2019-04-25T09:08:54.059Z,7.90
2019-04-25T09:09:55.597Z,7.60
2019-04-25T09:10:56.998Z,7.17
2019-04-25T09:11:58.428Z,7.45
2019-04-25T09:12:59.814Z,7.72
2019-04-25T09:14:01.212Z,8.45
2019-04-25T09:15:04.792Z,7.90
2019-04-25T09:16:07.405Z,8.10
2019-04-25T09:17:08.819Z,7.65
2019-04-25T09:18:10.208Z,8.10
2019-04-25T09:19:11.668Z,7.50
2019-04-25T09:20:13.917Z,7.95
2019-04-25T09:21:15.549Z,7.78
2019-04-25T09:22:16.985Z,7.22
2019-04-25T09:23:18.386Z,7.47
2019-04-25T09:24:19.873Z,7.10
2019-04-25T09:25:21.357Z,7.83
2019-04-25T09:26:24.111Z,7.53
2019-04-25T09:27:25.684Z,7.78
2019-04-25T09:28:27.064Z,7.47
2019-04-25T09:30:27.827Z,7.55
2019-04-25T09:31:29.248Z,7.67
2019-04-25T09:32:31.665Z,7.80
2019-04-25T09:33:35.154Z,7.50
2019-04-25T09:34:36.661Z,8.33
2019-04-25T09:35:38.170Z,7.67
2019-04-25T09:36:39.971Z,7.22
2019-04-25T09:37:43.861Z,7.30
2019-04-25T09:38:48.476Z,7.50
2019-04-25T09:39:50.654Z,7.65
2019-04-25T09:40:52.199Z,7.67
2019-04-25T09:41:53.819Z,7.53
2019-04-25T09:42:55.250Z,8.13
2019-04-25T09:43:58.532Z,7.60
2019-04-25T09:45:07.665Z,7.65
2019-04-25T09:46:16.499Z,7.35
2019-04-25T09:47:17.900Z,7.47
2019-04-25T09:48:27.160Z,7.45
2019-04-25T09:49:30.546Z,7.33
2019-04-25T09:50:34.024Z,7.53
2019-04-25T09:51:44.589Z,6.90
2019-04-25T09:52:47.079Z,6.87
2019-04-25T09:53:51.495Z,7.08
2019-04-25T09:54:54.958Z,6.80
2019-04-25T09:56:01.116Z,7.33
2019-04-25T09:57:04.389Z,7.00
2019-04-25T09:58:10.436Z,7.45
2019-04-25T09:59:27.286Z,8.05
2019-04-25T10:00:38.196Z,7.92
2019-04-25T10:01:43.390Z,7.35
2019-04-25T10:02:45.445Z,6.95
2019-04-25T10:03:47.358Z,7.28
2019-04-25T10:04:48.966Z,7.37
2019-04-25T10:05:50.437Z,6.97
2019-04-25T10:06:53.334Z,7.42
2019-04-25T10:07:56.029Z,7.20
2019-04-25T10:08:57.529Z,7.47
2019-04-25T10:09:59.584Z,7.33
2019-04-25T10:11:01.605Z,7.25
2019-04-25T10:12:04.796Z,7.12
2019-04-25T10:13:06.713Z,7.42
2019-04-25T10:14:33.324Z,7.28
2019-04-25T10:15:47.939Z,7.40
2019-04-25T10:16:49.519Z,7.40
2019-04-25T10:17:51.006Z,7.05
2019-04-25T10:18:53.316Z,7.22
2019-04-25T10:19:54.888Z,7.20
2019-04-25T10:20:56.360Z,6.65
2019-04-25T10:21:57.771Z,7.65
2019-04-25T10:22:59.560Z,6.80
2019-04-25T10:24:01.018Z,7.50
2019-04-25T10:25:04.208Z,6.70
2019-04-25T10:26:08.102Z,7.28
2019-04-25T10:27:09.605Z,6.70
2019-04-25T10:28:11.172Z,7.62
2019-04-25T10:29:13.560Z,6.92
2019-04-25T10:30:23.083Z,7.40
2019-04-25T10:31:20.984Z,7.33
2019-04-25T10:32:23.743Z,7.33
2019-04-25T10:33:26.141Z,7.50
2019-04-25T10:34:27.725Z,7.15
2019-04-25T10:35:29.520Z,7.40
2019-04-25T10:36:30.909Z,6.95
2019-04-25T10:37:33.935Z,7.17
2019-04-25T10:38:35.758Z,7.03
2019-04-25T10:39:37.192Z,7.47
2019-04-25T10:40:39.358Z,7.10
2019-04-25T10:41:41.246Z,7.08
2019-04-25T10:42:46.481Z,7.90
2019-04-25T10:43:46.372Z,7.92
2019-04-25T10:44:48.349Z,8.43
2019-04-25T10:45:49.945Z,7.28
2019-04-25T10:46:52.537Z,7.28
2019-04-25T10:47:56.421Z,7.92
2019-04-25T10:48:58.048Z,7.92
2019-04-25T10:49:59.526Z,7.08
2019-04-25T10:51:00.897Z,7.55
2019-04-25T10:52:02.320Z,7.30
2019-04-25T10:53:04.099Z,7.70
2019-04-25T10:54:05.602Z,7.33
2019-04-25T10:55:07.080Z,7.72
2019-04-25T10:56:09.580Z,7.33
2019-04-25T10:57:10.999Z,7.22
2019-04-25T10:58:14.108Z,7.70
2019-04-25T10:59:15.673Z,6.95
2019-04-25T11:00:27.553Z,7.90
2019-04-25T11:01:28.942Z,7.85
2019-04-25T11:02:30.340Z,7.08
2019-04-25T11:03:44.523Z,7.35
2019-04-25T11:04:49.765Z,7.20
2019-04-25T11:05:52.271Z,7.17
2019-04-25T11:06:55.211Z,7.20
2019-04-25T11:07:56.781Z,7.83
2019-04-25T11:08:58.269Z,7.15
2019-04-25T11:09:59.652Z,7.62
2019-04-25T11:11:01.239Z,7.90
2019-04-25T11:12:04.837Z,8.15
2019-04-25T11:13:06.240Z,8.03
2019-04-25T11:14:07.720Z,7.87
2019-04-25T11:15:09.424Z,7.37
2019-04-25T11:16:13.803Z,7.55
2019-04-25T11:17:15.617Z,7.42
2019-04-25T11:18:17.396Z,7.72
2019-04-25T11:19:18.780Z,8.03
2019-04-25T11:20:26.209Z,8.15
2019-04-25T11:21:27.719Z,7.53
2019-04-25T11:22:29.128Z,7.42
2019-04-25T11:23:30.646Z,7.78
2019-04-25T11:24:32.049Z,8.25
2019-04-25T11:25:34.210Z,7.55
2019-04-25T11:26:35.767Z,7.75
2019-04-25T11:27:37.176Z,7.58
2019-04-25T11:28:39.437Z,7.47
2019-04-25T11:29:41.643Z,7.72
2019-04-25T11:30:46.760Z,7.30
2019-04-25T11:31:48.958Z,7.58
2019-04-25T11:32:50.494Z,7.97
2019-04-25T11:33:51.889Z,7.17
2019-04-25T11:34:54.949Z,7.70
2019-04-25T11:35:56.597Z,7.83
2019-04-25T11:36:58.168Z,7.92
2019-04-25T11:38:03.364Z,8.10
2019-04-25T11:39:24.327Z,7.85
2019-04-25T11:40:39.537Z,8.00
2019-04-25T11:41:41.042Z,7.67
2019-04-25T11:42:43.204Z,7.47
2019-04-25T11:43:46.395Z,8.20
2019-04-25T11:44:49.782Z,7.55
2019-04-25T11:45:53.760Z,7.80
2019-04-25T11:46:54.935Z,7.87
2019-04-25T11:47:56.544Z,7.95
2019-04-25T11:48:57.948Z,8.45
2019-04-25T11:49:59.348Z,8.05
2019-04-25T11:51:01.204Z,8.15
2019-04-25T11:52:05.304Z,7.92
2019-04-25T11:53:07.082Z,7.92
2019-04-25T11:54:08.569Z,7.53
2019-04-25T11:55:10.492Z,8.13
2019-04-25T11:56:11.874Z,7.15
2019-04-25T11:57:13.923Z,8.43
2019-04-25T11:58:15.549Z,7.87
2019-04-25T11:59:16.969Z,7.87
2019-04-25T12:00:22.160Z,7.53
2019-04-25T12:01:24.337Z,8.08
2019-04-25T12:02:27.156Z,7.58
2019-04-25T12:03:28.545Z,7.72
2019-04-25T12:04:29.928Z,7.92
2019-04-25T12:05:31.483Z,7.95
2019-04-25T12:06:33.540Z,8.78
2019-04-25T12:07:35.065Z,8.00
2019-04-25T12:08:36.441Z,7.53
2019-04-25T12:09:37.841Z,8.18
2019-04-25T12:10:40.356Z,7.85
2019-04-25T12:11:43.542Z,7.67
2019-04-25T12:12:47.187Z,7.62
2019-04-25T12:13:49.401Z,7.50
2019-04-25T12:14:51.646Z,7.97
2019-04-25T12:15:54.860Z,7.58
2019-04-25T12:16:56.616Z,7.62
2019-04-25T12:17:58.117Z,7.72
2019-04-25T12:18:59.497Z,8.43
2019-04-25T12:20:00.882Z,7.70
2019-04-25T12:21:04.253Z,8.25
2019-04-25T12:22:06.013Z,8.73
2019-04-25T12:23:10.388Z,7.75
2019-04-25T12:24:11.018Z,8.05
2019-04-25T12:25:15.080Z,8.20
2019-04-25T12:26:16.618Z,8.15
2019-04-25T12:27:18.115Z,8.08
2019-04-25T12:28:19.604Z,8.43
2019-04-25T12:29:20.997Z,8.28
2019-04-25T12:30:36.739Z,8.00
2019-04-25T12:31:25.899Z,8.00
2019-04-25T12:32:27.309Z,8.53
2019-04-25T12:33:28.821Z,8.78
2019-04-25T12:34:30.385Z,7.47
2019-04-25T12:35:33.307Z,8.73
2019-04-25T12:36:35.057Z,8.95
2019-04-25T12:37:36.438Z,8.53
2019-04-25T12:38:37.937Z,8.25
2019-04-25T12:39:39.318Z,8.43
2019-04-25T12:40:40.825Z,8.20
2019-04-25T12:41:44.174Z,8.48
2019-04-25T12:42:46.386Z,7.78
2019-04-25T12:43:49.965Z,7.87
2019-04-25T12:44:54.843Z,8.20
2019-04-25T12:45:58.359Z,8.38
2019-04-25T12:47:03.272Z,8.23
2019-04-25T12:48:14.502Z,8.00
2019-04-25T12:49:15.998Z,8.05
2019-04-25T12:50:18.781Z,8.60
2019-04-25T12:51:20.435Z,8.18
2019-04-25T12:52:24.403Z,8.40
2019-04-25T12:53:25.139Z,7.90
2019-04-25T12:54:26.553Z,8.30
2019-04-25T12:55:28.069Z,8.23
2019-04-25T12:56:29.572Z,8.15
2019-04-25T12:57:30.972Z,7.95
2019-04-25T12:58:33.422Z,8.45
2019-04-25T12:59:34.945Z,8.13
2019-04-25T13:00:47.459Z,7.97
2019-04-25T13:01:39.736Z,8.15
2019-04-25T13:02:41.156Z,8.03
2019-04-25T13:03:43.941Z,8.35
2019-04-25T13:04:45.692Z,8.33
2019-04-25T13:05:47.366Z,8.15
2019-04-25T13:06:48.918Z,7.85
2019-04-25T13:07:51.458Z,7.85
2019-04-25T13:08:54.262Z,8.43
2019-04-25T13:09:55.772Z,7.92
2019-04-25T13:11:07.525Z,7.83
2019-04-25T13:12:00.493Z,7.85
2019-04-25T13:13:01.985Z,7.97
2019-04-25T13:14:03.497Z,8.43
2019-04-25T13:15:05.098Z,7.85
2019-04-25T13:16:07.118Z,7.83
2019-04-25T13:17:09.553Z,7.70
2019-04-25T13:18:11.134Z,8.53
2019-04-25T13:19:23.144Z,7.55
2019-04-25T13:20:15.812Z,8.13
2019-04-25T13:21:17.192Z,8.38
2019-04-25T13:22:18.774Z,8.10
2019-04-25T13:23:20.269Z,7.92
2019-04-25T13:24:21.683Z,8.10
2019-04-25T13:25:24.258Z,7.80
2019-04-25T13:26:27.715Z,7.62
2019-04-25T13:27:44.520Z,7.90
2019-04-25T13:28:47.940Z,8.98
2019-04-25T13:29:57.347Z,8.18
2019-04-25T13:31:06.641Z,7.80
2019-04-25T13:32:24.052Z,8.85
2019-04-25T13:33:36.261Z,7.65
2019-04-25T13:34:39.551Z,8.43
2019-04-25T13:35:45.430Z,8.68
2019-04-25T13:36:46.850Z,8.23
2019-04-25T13:37:48.381Z,8.35
2019-04-25T13:38:49.801Z,9.10
2019-04-25T13:39:51.296Z,8.13
2019-04-25T13:40:52.672Z,8.50
2019-04-25T13:41:54.453Z,8.73
2019-04-25T13:42:58.012Z,8.55
2019-04-25T13:43:59.558Z,9.00
2019-04-25T13:45:01.077Z,9.93
2019-04-25T13:46:02.594Z,8.63
2019-04-25T13:47:04.822Z,8.68
2019-04-25T13:48:06.258Z,9.60
2019-04-25T13:49:08.064Z,10.58
2019-04-25T13:50:09.564Z,9.30
2019-04-25T13:51:10.941Z,9.65
2019-04-25T13:52:12.828Z,9.70
2019-04-25T13:53:14.769Z,9.08
2019-04-25T13:54:16.256Z,8.80
2019-04-25T13:55:17.667Z,9.43
2019-04-25T13:56:19.056Z,8.83
2019-04-25T13:57:20.755Z,9.28
2019-04-25T13:58:24.532Z,9.15
2019-04-25T13:59:26.622Z,8.90
2019-04-25T14:00:28.556Z,9.45
2019-04-25T14:01:30.332Z,9.00
2019-04-25T14:02:31.736Z,8.85
2019-04-25T14:03:34.016Z,9.50